Time;durP1;ratioP1;P1;durP2;ratioP2;P2;SDS_P1;SDS_P2;PMS_P1;PMS_P2;Temp;Humidity;BMP_temperature;BMP_pressure;BME280_temperature;BME280_humidity;BME280_pressure;Samples;Min_cycle;Max_cycle;Signal;HPM_P1;HPM_P2
2023/04/02 00:01:00;;;;;;;3.58;1.10;;;;;;;8.54;60.03;94375.81;5087576;28;20031;-79
2023/04/02 00:04:04;;;;;;;2.80;1.00;;;;;;;8.49;60.70;94374.00;5108895;28;20043;-79
2023/04/02 00:06:32;;;;;;;4.93;1.10;;;;;;;8.55;60.27;94378.16;5104522;28;20047;-79
2023/04/02 00:09:20;;;;;;;3.90;1.08;;;;;;;8.36;59.76;94356.97;5112995;28;20080;-78
2023/04/02 00:11:49;;;;;;;1.75;1.10;;;;;;;8.35;59.96;94355.38;5094071;28;20089;-78
2023/04/02 00:14:27;;;;;;;4.47;0.80;;;;;;;8.39;59.94;94363.56;5112680;28;20092;-79
2023/04/02 00:16:55;;;;;;;0.93;0.70;;;;;;;8.44;59.41;94364.28;5094365;28;20024;-79
2023/04/02 00:19:26;;;;;;;1.33;0.80;;;;;;;8.43;58.93;94372.47;5094589;28;20158;-78
2023/04/02 00:21:52;;;;;;;0.95;0.70;;;;;;;8.38;59.53;94375.97;5112212;28;20051;-79
2023/04/02 00:24:20;;;;;;;2.33;0.63;;;;;;;8.42;58.92;94382.25;5094079;28;20570;-78
2023/04/02 00:26:49;;;;;;;1.02;0.80;;;;;;;8.21;58.57;94348.34;5112478;28;20074;-79
2023/04/02 00:29:17;;;;;;;2.72;0.77;;;;;;;8.27;59.35;94363.09;5094089;28;20031;-78
2023/04/02 00:31:49;;;;;;;2.28;0.80;;;;;;;8.32;58.67;94350.66;5112257;28;20019;-78
2023/04/02 00:35:04;;;;;;;4.13;0.85;;;;;;;8.47;58.83;94366.34;5092436;28;20062;-79
2023/04/02 00:37:38;;;;;;;1.83;0.98;;;;;;;8.07;58.13;94314.69;5064472;28;20115;-79
2023/04/02 00:40:30;;;;;;;3.65;0.77;;;;;;;8.47;58.68;94363.72;5110207;28;20032;-79
2023/04/02 00:42:58;;;;;;;1.33;0.65;;;;;;;8.47;59.14;94353.13;5101515;28;20520;-78
2023/04/02 00:45:24;;;;;;;3.47;1.10;;;;;;;8.47;59.14;94365.56;5090693;28;20418;-79
2023/04/02 00:47:50;;;;;;;3.25;2.08;;;;;;;8.45;61.77;94371.16;5106849;28;20032;-78
2023/04/02 00:50:25;;;;;;;6.38;2.63;;;;;;;8.55;62.17;94364.94;5112756;28;20032;-78
2023/04/02 00:52:52;;;;;;;5.40;3.22;;;;;;;8.13;62.80;94313.56;5112232;28;20112;-78
2023/04/02 00:55:26;;;;;;;6.03;3.20;;;;;;;8.65;62.51;94366.72;5111995;28;20027;-78
2023/04/02 00:57:54;;;;;;;4.43;2.80;;;;;;;8.09;62.53;94269.50;5111835;28;20028;-79
2023/04/02 01:00:29;;;;;;;6.20;2.72;;;;;;;8.26;62.92;94321.88;5107858;28;20535;-79
2023/04/02 01:03:15;;;;;;;6.15;3.10;;;;;;;8.50;62.73;94360.50;5094090;28;20134;-78
2023/04/02 01:06:09;;;;;;;4.15;2.75;;;;;;;8.47;63.40;94368.19;5112206;28;20038;-79
2023/04/02 01:08:37;;;;;;;4.90;2.60;;;;;;;8.46;63.54;94369.28;5111652;28;20031;-78
2023/04/02 01:11:29;;;;;;;4.63;2.75;;;;;;;8.51;63.38;94372.66;5093357;28;20405;-79
2023/04/02 01:14:19;;;;;;;8.77;3.30;;;;;;;8.30;64.14;94376.53;5112012;28;20054;-79
2023/04/02 01:17:02;;;;;;;8.05;3.45;;;;;;;8.07;63.83;94340.31;5111517;28;20035;-78
2023/04/02 01:19:30;;;;;;;5.88;2.75;;;;;;;7.96;64.80;94371.28;5111794;28;20102;-79
2023/04/02 01:22:07;;;;;;;6.25;2.60;;;;;;;7.59;65.48;94342.00;5111493;28;20071;-79
2023/04/02 01:24:36;;;;;;;8.32;3.30;;;;;;;7.56;65.59;94337.25;5093918;28;20052;-79
2023/04/02 01:27:07;;;;;;;9.00;2.97;;;;;;;7.29;64.88;94295.50;5111489;28;20531;-79
2023/04/02 01:29:51;;;;;;;5.22;3.30;;;;;;;7.29;65.26;94309.47;5111474;28;20027;-77
2023/04/02 01:32:20;;;;;;;6.13;4.15;;;;;;;7.14;66.21;94316.69;5111228;28;20027;-77
2023/04/02 01:34:47;;;;;;;6.07;3.80;;;;;;;7.55;66.34;94391.88;5111296;28;20035;-77
2023/04/02 01:37:31;;;;;;;7.45;3.20;;;;;;;7.62;66.63;94395.03;5112013;28;20028;-77
2023/04/02 01:40:32;;;;;;;8.23;3.75;;;;;;;7.68;65.81;94388.63;5092644;28;20031;-77
2023/04/02 01:43:00;;;;;;;5.50;3.43;;;;;;;7.83;66.03;94395.66;5008211;28;20112;-77
2023/04/02 01:45:27;;;;;;;4.28;2.80;;;;;;;7.54;65.31;94342.03;5091292;28;20085;-77
2023/04/02 01:47:53;;;;;;;7.68;2.40;;;;;;;7.03;66.14;94276.41;5110811;28;20042;-77
2023/04/02 01:50:18;;;;;;;4.30;2.47;;;;;;;7.49;66.23;94379.78;5095272;28;20027;-77
2023/04/02 01:52:47;;;;;;;5.28;2.53;;;;;;;7.50;66.30;94375.28;5115876;28;20048;-77
2023/04/02 01:55:16;;;;;;;3.35;1.90;;;;;;;7.01;67.01;94312.03;5115043;28;20036;-77
2023/04/02 01:57:47;;;;;;;3.90;2.17;;;;;;;7.21;66.99;94344.34;5096488;28;20542;-77
2023/04/02 02:00:14;;;;;;;4.97;2.60;;;;;;;7.12;66.66;94303.78;5115219;28;20028;-76
2023/04/02 02:02:42;;;;;;;11.13;2.70;;;;;;;7.59;66.37;94382.34;5097837;28;20035;-77
2023/04/02 02:05:17;;;;;;;6.47;2.22;;;;;;;7.13;66.12;94302.72;5116690;28;20027;-77
2023/04/02 02:07:43;;;;;;;4.47;2.05;;;;;;;7.05;66.35;94298.00;5115874;28;20473;-76
2023/04/02 02:10:20;;;;;;;3.80;2.15;;;;;;;7.13;66.80;94333.56;5115819;28;20055;-76
2023/04/02 02:12:47;;;;;;;2.70;1.98;;;;;;;6.79;67.31;94309.75;5115302;28;20115;-77
2023/04/02 02:15:19;;;;;;;5.15;2.38;;;;;;;7.40;66.59;94375.38;5116343;28;20127;-77
2023/04/02 02:17:46;;;;;;;5.78;2.55;;;;;;;7.45;66.83;94349.72;5116232;28;20043;-76
2023/04/02 02:20:13;;;;;;;4.90;2.13;;;;;;;6.98;66.59;94286.97;5115375;28;20038;-77
2023/04/02 02:22:47;;;;;;;6.75;2.08;;;;;;;7.11;66.40;94296.13;5096887;28;20533;-76
2023/04/02 02:25:23;;;;;;;6.28;2.25;;;;;;;7.32;65.79;94300.25;5097434;28;20028;-77
2023/04/02 02:28:09;;;;;;;7.18;2.22;;;;;;;7.72;66.04;94373.03;5115971;28;20043;-77
2023/04/02 02:30:48;;;;;;;5.35;2.33;;;;;;;7.87;65.50;94380.84;5098035;28;20059;-76
2023/04/02 02:33:29;;;;;;;6.55;2.30;;;;;;;7.92;65.06;94380.03;5115959;28;20028;-77
2023/04/02 02:36:32;;;;;;;4.00;2.38;;;;;;;8.03;65.52;94374.38;5093506;28;20031;-76
2023/04/02 02:39:04;;;;;;;6.40;2.35;;;;;;;7.60;66.15;94319.81;5111096;28;20020;-77
2023/04/02 02:42:02;;;;;;;4.07;2.42;;;;;;;8.05;65.61;94366.19;5114950;28;20037;-77
2023/04/02 02:44:31;;;;;;;3.67;2.25;;;;;;;8.09;65.68;94375.91;5075177;28;20035;-77
2023/04/02 02:47:01;;;;;;;2.42;1.77;;;;;;;8.07;65.49;94367.50;5115344;28;20031;-77
2023/04/02 02:49:34;;;;;;;5.53;2.72;;;;;;;8.09;65.78;94369.84;5115980;28;20036;-77
2023/04/02 02:52:06;;;;;;;5.85;2.70;;;;;;;8.10;66.01;94371.41;5115466;28;20035;-77
2023/04/02 02:54:34;;;;;;;9.52;3.67;;;;;;;7.88;65.96;94347.31;5115397;28;20105;-77
2023/04/02 02:57:03;;;;;;;7.05;3.15;;;;;;;7.69;66.14;94318.97;5096918;28;20066;-77
2023/04/02 02:59:30;;;;;;;4.53;3.28;;;;;;;8.01;66.31;94379.16;5114758;28;20023;-77
2023/04/02 03:01:55;;;;;;;9.57;4.22;;;;;;;7.84;65.78;94341.03;5113993;28;20036;-77
2023/04/02 03:04:22;;;;;;;11.55;4.65;;;;;;;8.02;66.04;94375.44;5096669;28;20035;-77
2023/04/02 03:06:52;;;;;;;7.07;4.03;;;;;;;7.33;66.76;94294.66;5115465;28;20046;-77
2023/04/02 03:09:42;;;;;;;10.05;4.15;;;;;;;8.00;66.28;94379.44;5096432;28;20032;-77
2023/04/02 03:12:42;;;;;;;6.95;3.78;;;;;;;8.04;65.79;94375.16;5073589;28;20097;-77
2023/04/02 03:15:26;;;;;;;9.65;4.03;;;;;;;8.06;65.87;94379.13;5114520;28;20032;-77
2023/04/02 03:18:03;;;;;;;8.73;4.00;;;;;;;7.66;65.69;94330.06;5096758;28;20063;-77
2023/04/02 03:20:47;;;;;;;6.70;3.85;;;;;;;7.75;65.87;94352.16;5096017;28;20501;-77
2023/04/02 03:23:31;;;;;;;7.28;3.75;;;;;;;8.05;65.59;94389.97;5092930;28;20063;-77
2023/04/02 03:26:09;;;;;;;8.05;3.90;;;;;;;7.99;65.96;94389.22;5094205;28;20028;-77
2023/04/02 03:29:07;;;;;;;7.60;3.53;;;;;;;7.71;66.01;94360.88;5094080;28;20115;-77
2023/04/02 03:31:40;;;;;;;10.35;3.72;;;;;;;7.48;65.93;94312.25;5093991;28;20052;-77
2023/04/02 03:34:55;;;;;;;12.77;4.95;;;;;;;7.98;65.65;94402.69;5075614;28;20035;-77
2023/04/02 03:37:31;;;;;;;8.32;4.75;;;;;;;7.97;66.25;94395.81;5068155;28;20055;-77
2023/04/02 03:40:10;;;;;;;17.35;5.22;;;;;;;7.45;67.01;94333.91;5094623;28;20024;-77
2023/04/02 03:42:45;;;;;;;7.75;4.60;;;;;;;7.93;66.25;94395.59;5095703;28;20028;-77
2023/04/02 03:45:38;;;;;;;8.63;5.57;;;;;;;7.70;66.20;94364.63;5094153;28;20416;-77
2023/04/02 03:48:13;;;;;;;11.23;4.93;;;;;;;7.87;66.70;94398.53;5075064;28;20028;-77
2023/04/02 03:51:03;;;;;;;10.20;5.75;;;;;;;7.84;66.87;94407.00;5094075;28;20213;-77
2023/04/02 03:53:31;;;;;;;11.85;6.45;;;;;;;7.86;66.54;94395.09;5094182;28;20545;-77
2023/04/02 03:55:58;;;;;;;13.38;6.90;;;;;;;7.84;66.81;94405.16;5075756;28;20031;-77
2023/04/02 03:58:45;;;;;;;9.68;5.43;;;;;;;7.80;66.67;94396.19;5076642;28;20490;-77
2023/04/02 04:01:30;;;;;;;12.52;5.45;;;;;;;7.62;67.25;94381.81;5079646;28;20043;-77
2023/04/02 04:04:03;;;;;;;9.50;5.93;;;;;;;7.41;66.77;94353.19;5099474;28;20036;-77
2023/04/02 04:06:31;;;;;;;12.07;5.45;;;;;;;7.07;67.10;94305.66;5056582;28;20067;-77
2023/04/02 04:09:08;;;;;;;9.65;5.38;;;;;;;7.42;67.21;94370.59;5067851;28;20063;-77
2023/04/02 04:11:43;;;;;;;8.18;5.68;;;;;;;7.66;66.82;94409.22;5071583;28;20040;-77
2023/04/02 04:14:17;;;;;;;12.00;5.18;;;;;;;7.64;67.38;94418.47;5054371;28;20121;-77
2023/04/02 04:16:48;;;;;;;10.98;5.72;;;;;;;7.35;68.09;94421.00;5072767;28;20493;-77
2023/04/02 04:19:20;;;;;;;11.90;6.22;;;;;;;7.48;67.75;94420.41;5088846;28;20093;-77
2023/04/02 04:21:46;;;;;;;8.88;4.90;;;;;;;6.76;68.13;94339.28;5080042;28;20067;-77
2023/04/02 04:24:26;;;;;;;10.73;5.22;;;;;;;7.36;67.86;94415.47;5092360;28;20047;-77
2023/04/02 04:27:08;;;;;;;10.30;5.75;;;;;;;7.41;67.81;94421.75;5092912;28;20442;-78
2023/04/02 04:29:45;;;;;;;10.05;5.22;;;;;;;6.88;67.37;94347.66;5113288;28;20383;-77
2023/04/02 04:32:26;;;;;;;10.05;5.55;;;;;;;7.44;67.84;94429.16;5094509;28;20039;-77
2023/04/02 04:34:57;;;;;;;16.10;5.43;;;;;;;7.17;67.29;94382.06;5094428;28;20040;-77
2023/04/02 04:37:32;;;;;;;9.32;5.38;;;;;;;6.91;67.38;94361.09;5113009;28;20481;-77
2023/04/02 04:40:06;;;;;;;11.13;5.30;;;;;;;7.22;67.79;94434.78;5112952;28;20066;-77
2023/04/02 04:42:35;;;;;;;12.65;5.53;;;;;;;7.09;68.50;94432.75;5113125;28;20042;-77
2023/04/02 04:45:21;;;;;;;19.27;6.05;;;;;;;7.17;68.65;94440.84;5092920;28;20136;-77
2023/04/02 04:47:54;;;;;;;18.00;6.15;;;;;;;6.87;68.50;94380.31;5073993;28;20495;-77
2023/04/02 04:50:35;;;;;;;20.92;6.47;;;;;;;7.27;68.28;94443.47;5072209;28;20032;-77
2023/04/02 04:53:06;;;;;;;12.57;5.93;;;;;;;6.94;68.43;94401.94;5091963;28;20165;-77
2023/04/02 04:55:42;;;;;;;15.40;5.88;;;;;;;6.75;69.00;94374.59;5092161;28;20040;-77
2023/04/02 04:58:20;;;;;;;13.95;5.78;;;;;;;6.87;69.07;94391.66;5073787;28;20536;-77
2023/04/02 05:01:27;;;;;;;14.75;5.20;;;;;;;7.29;68.72;94441.34;5092223;28;20505;-77
2023/04/02 05:04:08;;;;;;;14.98;7.07;;;;;;;7.30;68.67;94447.41;5010618;28;20104;-77
2023/04/02 05:06:43;;;;;;;12.13;5.50;;;;;;;6.96;69.13;94376.09;5029591;28;20033;-77
2023/04/02 05:09:18;;;;;;;14.02;7.18;;;;;;;7.49;68.78;94444.94;5095646;27;20111;-77
2023/04/02 05:12:11;;;;;;;15.85;7.75;;;;;;;7.25;68.60;94402.59;5113469;27;20042;-77
2023/04/02 05:14:57;;;;;;;18.30;6.70;;;;;;;7.60;68.51;94443.84;5062508;27;20097;-76
2023/04/02 05:17:30;;;;;;;14.63;6.78;;;;;;;7.69;67.92;94448.28;5130042;27;20124;-77
2023/04/02 05:20:15;;;;;;;9.60;5.82;;;;;;;7.62;67.87;94436.44;5113935;27;20023;-77
2023/04/02 05:22:52;;;;;;;12.88;6.22;;;;;;;7.75;67.54;94444.53;5133119;27;20103;-77
2023/04/02 05:25:26;;;;;;;12.15;6.40;;;;;;;7.77;67.76;94457.47;5131701;27;20040;-77
2023/04/02 05:28:09;;;;;;;13.48;6.22;;;;;;;7.84;67.38;94459.81;5132439;27;20497;-77
2023/04/02 05:31:00;;;;;;;15.13;7.45;;;;;;;7.93;67.11;94458.97;5123735;27;20497;-76
2023/04/02 05:33:27;;;;;;;13.27;6.00;;;;;;;7.97;67.20;94461.84;5109007;28;20024;-77
2023/04/02 05:36:12;;;;;;;9.90;5.90;;;;;;;7.42;66.51;94376.66;5106407;28;20032;-77
2023/04/02 05:38:45;;;;;;;7.28;4.43;;;;;;;7.70;65.73;94414.75;5109682;28;20513;-77
2023/04/02 05:41:35;;;;;;;7.07;4.78;;;;;;;7.86;64.97;94462.97;5126878;28;20039;-76
2023/04/02 05:44:27;;;;;;;8.38;4.30;;;;;;;7.66;64.89;94458.59;5093545;28;20047;-77
2023/04/02 05:47:01;;;;;;;7.10;3.88;;;;;;;7.70;64.97;94449.84;5111506;28;20055;-76
2023/04/02 05:49:40;;;;;;;11.20;5.28;;;;;;;7.57;64.75;94405.59;5093170;28;20031;-78
2023/04/02 05:52:11;;;;;;;9.40;4.90;;;;;;;7.87;63.89;94472.44;5111329;28;20039;-78
2023/04/02 05:54:51;;;;;;;8.82;4.88;;;;;;;7.83;64.09;94442.38;5093750;28;20040;-78
2023/04/02 05:57:31;;;;;;;15.73;6.03;;;;;;;7.47;64.36;94394.31;5126605;28;20039;-78
2023/04/02 06:00:02;;;;;;;13.65;4.78;;;;;;;8.00;63.72;94480.56;5093692;28;20039;-78
2023/04/02 06:02:35;;;;;;;8.57;4.72;;;;;;;8.12;63.63;94481.00;5080397;28;20039;-78
2023/04/02 06:05:14;;;;;;;9.13;5.38;;;;;;;7.83;63.23;94440.53;5073617;28;20097;-78
2023/04/02 06:08:24;;;;;;;10.43;4.82;;;;;;;8.36;62.91;94481.13;5090988;28;20035;-77
2023/04/02 06:11:18;;;;;;;10.38;4.30;;;;;;;8.26;62.49;94475.88;5029070;28;20046;-78
2023/04/02 06:13:44;;;;;;;9.38;4.57;;;;;;;8.43;62.47;94470.25;5018474;28;20045;-78
2023/04/02 06:16:15;;;;;;;10.70;4.40;;;;;;;8.16;62.23;94430.28;5071828;28;20052;-78
2023/04/02 06:18:42;;;;;;;9.00;4.67;;;;;;;8.57;62.31;94473.81;5091189;28;20036;-78
2023/04/02 06:21:11;;;;;;;8.98;3.70;;;;;;;8.39;61.60;94432.25;5072465;28;20294;-78
2023/04/02 06:23:45;;;;;;;8.73;3.78;;;;;;;8.83;61.37;94479.69;5090726;28;20115;-78
2023/04/02 06:26:28;;;;;;;8.85;3.47;;;;;;;8.86;61.06;94482.53;5073234;28;20069;-78
2023/04/02 06:29:04;;;;;;;8.27;4.18;;;;;;;8.24;60.89;94390.06;5073766;28;20541;-78
2023/04/02 06:31:38;;;;;;;9.40;3.97;;;;;;;8.91;60.52;94481.72;5091840;28;20507;-78
2023/04/02 06:34:06;;;;;;;5.68;3.17;;;;;;;8.48;60.59;94418.13;5091944;28;20106;-78
2023/04/02 06:36:32;;;;;;;6.43;3.75;;;;;;;8.81;60.83;94481.81;5094202;28;20121;-78
2023/04/02 06:39:05;;;;;;;9.38;4.20;;;;;;;8.84;60.38;94460.91;5095071;28;20074;-77
2023/04/02 06:41:31;;;;;;;7.15;3.33;;;;;;;9.03;60.62;94470.75;5076595;28;20038;-78
2023/04/02 06:44:01;;;;;;;10.88;3.55;;;;;;;8.85;60.30;94446.59;5095350;28;20040;-79
2023/04/02 06:46:30;;;;;;;9.95;3.70;;;;;;;9.15;59.69;94476.47;5076943;28;20047;-78
2023/04/02 06:49:17;;;;;;;8.73;4.18;;;;;;;9.01;60.15;94452.50;5076218;28;20040;-78
2023/04/02 06:51:44;;;;;;;9.68;4.63;;;;;;;8.66;59.43;94413.22;5085576;27;20038;-78
2023/04/02 06:54:17;;;;;;;8.65;3.80;;;;;;;8.89;59.69;94444.97;5114819;28;20044;-78
2023/04/02 06:56:50;;;;;;;6.88;3.38;;;;;;;8.65;59.60;94382.56;5115163;28;20110;-78
2023/04/02 06:59:17;;;;;;;6.43;3.53;;;;;;;8.65;59.38;94393.13;5131166;27;20031;-79
2023/04/02 07:01:50;;;;;;;10.40;3.83;;;;;;;9.32;58.91;94489.22;5114819;28;20139;-78
2023/04/02 07:04:17;;;;;;;8.32;3.65;;;;;;;9.19;58.83;94456.28;5096110;28;20043;-78
2023/04/02 07:06:43;;;;;;;15.48;5.10;;;;;;;9.10;59.40;94445.53;5132917;27;20068;-78
2023/04/02 07:09:08;;;;;;;8.43;3.83;;;;;;;9.19;58.98;94445.72;5096826;28;20043;-78
2023/04/02 07:11:34;;;;;;;11.38;3.90;;;;;;;9.62;58.99;94504.75;5114135;28;20027;-78
2023/04/02 07:13:59;;;;;;;8.15;3.75;;;;;;;9.32;58.75;94444.22;5130744;27;20485;-79
2023/04/02 07:16:28;;;;;;;8.80;4.75;;;;;;;9.45;59.72;94460.25;5114605;28;20039;-79
2023/04/02 07:18:54;;;;;;;10.85;4.63;;;;;;;9.75;59.51;94504.06;5096316;28;20097;-78
2023/04/02 07:21:21;;;;;;;11.75;3.92;;;;;;;8.79;59.46;94368.41;5114663;28;20054;-79
2023/04/02 07:23:46;;;;;;;9.02;3.70;;;;;;;8.88;59.48;94403.72;5095383;28;20032;-79
2023/04/02 07:26:19;;;;;;;17.25;4.82;;;;;;;9.66;59.95;94501.28;5114410;28;20028;-78
2023/04/02 07:28:44;;;;;;;9.00;4.55;;;;;;;9.68;60.28;94514.22;5129571;27;20035;-78
2023/04/02 07:31:23;;;;;;;7.03;3.72;;;;;;;9.56;59.21;94460.88;5114456;28;20061;-79
2023/04/02 07:33:49;;;;;;;9.70;4.25;;;;;;;9.93;59.16;94505.16;5112886;28;20051;-79
2023/04/02 07:36:21;;;;;;;9.70;4.30;;;;;;;9.47;59.99;94454.63;5113589;28;20046;-79
2023/04/02 07:38:46;;;;;;;5.90;2.20;;;;;;;9.50;58.48;94440.84;5095927;28;20035;-78
2023/04/02 07:41:13;;;;;;;8.15;2.30;;;;;;;9.84;57.76;94505.00;5113985;28;20386;-78
2023/04/02 07:43:39;;;;;;;8.25;1.88;;;;;;;9.28;57.48;94404.34;5095876;28;20043;-78
2023/04/02 07:46:06;;;;;;;6.85;1.98;;;;;;;9.73;56.49;94473.66;5129677;27;20054;-78
2023/04/02 07:48:31;;;;;;;4.25;1.63;;;;;;;10.26;57.32;94511.34;5094596;28;20051;-78
2023/04/02 07:50:57;;;;;;;6.00;2.20;;;;;;;9.51;57.14;94374.41;5113822;28;20518;-77
2023/04/02 07:53:34;;;;;;;5.18;1.80;;;;;;;10.00;56.99;94456.03;5095896;28;20019;-80
2023/04/02 07:56:02;;;;;;;4.50;1.60;;;;;;;10.36;56.92;94503.28;5114840;28;20039;-78
2023/04/02 07:58:29;;;;;;;9.07;2.28;;;;;;;10.50;56.69;94504.13;5113242;28;20028;-78
2023/04/02 08:00:55;;;;;;;1.60;1.13;;;;;;;10.61;54.10;94505.50;5095250;28;20482;-80
2023/04/02 08:03:21;;;;;;;3.53;1.42;;;;;;;10.67;53.49;94511.53;5112887;28;20039;-78
2023/04/02 08:05:51;;;;;;;1.98;0.93;;;;;;;9.98;53.75;94405.25;5113074;28;20225;-78
2023/04/02 08:08:20;;;;;;;3.45;1.20;;;;;;;10.06;55.02;94412.53;5094696;28;20497;-78
2023/04/02 08:10:45;;;;;;;5.78;1.15;;;;;;;10.60;53.71;94455.44;5112237;28;20039;-79
2023/04/02 08:13:11;;;;;;;4.20;1.10;;;;;;;10.88;53.04;94482.81;5093976;28;20030;-80
2023/04/02 08:15:37;;;;;;;3.58;1.00;;;;;;;11.20;52.28;94515.41;5113062;28;20114;-78
2023/04/02 08:18:03;;;;;;;2.20;0.95;;;;;;;11.10;53.15;94470.47;5112894;28;20062;-78
2023/04/02 08:20:28;;;;;;;4.38;1.08;;;;;;;11.07;52.67;94468.41;5112794;28;20043;-78
2023/04/02 08:22:55;;;;;;;1.13;0.80;;;;;;;10.76;49.87;94436.31;5092212;27;20039;-78
2023/04/02 08:25:20;;;;;;;2.42;0.82;;;;;;;10.83;50.48;94449.22;5113784;28;20111;-79
2023/04/02 08:27:47;;;;;;;3.80;1.00;;;;;;;10.69;51.57;94435.91;5094611;28;20103;-78
2023/04/02 08:30:13;;;;;;;1.67;1.10;;;;;;;10.85;52.02;94462.97;5094149;28;20036;-79
2023/04/02 08:32:39;;;;;;;2.28;0.90;;;;;;;10.71;51.37;94427.66;5093995;28;20481;-79
2023/04/02 08:35:06;;;;;;;2.30;1.20;;;;;;;11.20;52.04;94504.78;5092663;28;20114;-78
2023/04/02 08:37:31;;;;;;;1.00;0.90;;;;;;;11.43;51.44;94511.00;5111814;28;20092;-78
2023/04/02 08:39:57;;;;;;;1.55;0.98;;;;;;;11.48;52.51;94512.78;5112749;28;20039;-79
2023/04/02 08:42:36;;;;;;;4.00;0.90;;;;;;;11.54;51.00;94522.22;5093955;28;20044;-77
2023/04/02 08:45:08;;;;;;;5.30;0.90;;;;;;;11.58;51.57;94518.69;5111998;28;20039;-78
2023/04/02 08:47:38;;;;;;;6.40;1.10;;;;;;;11.51;51.44;94514.84;5112922;28;20175;-78
2023/04/02 08:50:29;;;;;;;1.25;0.65;;;;;;;11.51;50.73;94522.81;5112238;28;20114;-79
2023/04/02 08:52:56;;;;;;;2.00;1.00;;;;;;;11.18;51.72;94475.09;5095570;28;20059;-78
2023/04/02 08:56:04;;;;;;;2.28;0.73;;;;;;;11.50;50.33;94523.91;5114083;28;20513;-78
2023/04/02 08:58:41;;;;;;;2.35;1.00;;;;;;;11.58;51.52;94525.88;5001045;28;20037;-80
2023/04/02 09:01:14;;;;;;;2.05;1.00;;;;;;;11.62;49.16;94534.81;4995394;28;20041;-79
2023/04/02 09:03:48;;;;;;;2.20;1.05;;;;;;;11.37;49.18;94477.66;5003377;28;20252;-79
2023/04/02 09:06:17;;;;;;;3.10;1.35;;;;;;;11.65;48.11;94505.00;5035794;27;20129;-81
2023/04/02 09:08:45;;;;;;;1.25;0.90;;;;;;;11.85;48.53;94512.59;5067840;28;20043;-78
2023/04/02 09:11:20;;;;;;;5.93;1.20;;;;;;;11.91;49.49;94513.25;5094183;28;20129;-78
2023/04/02 09:13:50;;;;;;;1.77;0.80;;;;;;;11.78;48.78;94480.31;5093749;28;20036;-78
2023/04/02 09:16:22;;;;;;;2.75;1.02;;;;;;;11.84;49.23;94463.19;5111196;28;20050;-78
2023/04/02 09:18:52;;;;;;;5.80;1.40;;;;;;;12.21;50.38;94496.66;5092472;28;20031;-78
2023/04/02 09:21:41;;;;;;;6.68;1.27;;;;;;;12.37;48.11;94481.16;5092274;28;20212;-78
2023/04/02 09:24:11;;;;;;;2.60;0.95;;;;;;;12.33;47.19;94509.44;5111860;28;20027;-78
2023/04/02 09:26:37;;;;;;;2.75;0.88;;;;;;;11.90;48.09;94450.59;5109124;28;20035;-79
2023/04/02 09:29:23;;;;;;;2.55;1.30;;;;;;;12.53;47.36;94513.50;5128857;27;20027;-79
2023/04/02 09:32:27;;;;;;;2.88;1.30;;;;;;;12.26;47.82;94482.50;5115354;27;20489;-77
2023/04/02 09:35:15;;;;;;;1.55;0.90;;;;;;;12.42;48.40;94530.81;5104153;27;20043;-78
2023/04/02 09:37:42;;;;;;;1.85;0.80;;;;;;;12.21;46.98;94470.09;5123680;27;20443;-79
2023/04/02 09:40:27;;;;;;;2.35;1.08;;;;;;;12.51;47.14;94499.75;5088913;28;20059;-78
2023/04/02 09:43:24;;;;;;;9.85;1.38;;;;;;;12.68;48.55;94503.31;5107851;28;20038;-78
2023/04/02 09:46:12;;;;;;;1.33;0.85;;;;;;;12.44;48.37;94448.84;5115039;28;20040;-79
2023/04/02 09:48:52;;;;;;;2.75;1.02;;;;;;;12.87;47.43;94503.13;5114386;28;20084;-78
2023/04/02 09:51:20;;;;;;;3.22;1.00;;;;;;;12.54;46.58;94443.28;5115740;28;20028;-80
2023/04/02 09:54:04;;;;;;;3.95;1.45;;;;;;;12.19;46.09;94363.28;5116423;28;20024;-79
2023/04/02 09:56:38;;;;;;;3.88;0.98;;;;;;;12.19;45.76;94351.88;5095890;28;20432;-80
2023/04/02 09:59:12;;;;;;;0.65;0.65;;;;;;;12.92;45.42;94492.34;5113144;28;20028;-79
2023/04/02 10:02:02;;;;;;;2.78;0.90;;;;;;;12.87;45.60;94447.25;5113380;28;20062;-79
2023/04/02 10:04:42;;;;;;;2.35;0.80;;;;;;;12.97;44.59;94464.84;5112891;28;20499;-78
2023/04/02 10:07:34;;;;;;;2.97;0.90;;;;;;;12.99;44.62;94452.78;5094611;28;20504;-79
2023/04/02 10:10:26;;;;;;;1.50;1.02;;;;;;;13.88;43.69;94468.47;5100746;28;20036;-80
2023/04/02 10:13:00;;;;;;;8.25;1.92;;;;;;;14.38;41.70;94483.28;5117239;28;20165;-80
2023/04/02 10:16:07;;;;;;;3.55;1.30;;;;;;;14.79;41.17;94478.28;5133400;27;20058;-79
2023/04/02 10:18:43;;;;;;;2.42;1.10;;;;;;;14.55;42.31;94467.31;5091078;28;20497;-79
2023/04/02 10:21:24;;;;;;;3.80;1.42;;;;;;;14.81;41.71;94456.59;5097662;28;20057;-78
2023/04/02 10:23:49;;;;;;;1.70;1.17;;;;;;;15.01;40.03;94450.59;5116995;28;20115;-80
2023/04/02 10:26:26;;;;;;;1.23;0.80;;;;;;;15.09;40.13;94478.38;5116609;28;20484;-78
2023/04/02 10:29:23;;;;;;;2.15;0.82;;;;;;;14.59;40.73;94396.97;5113314;27;20091;-79
2023/04/02 10:31:56;;;;;;;6.43;0.80;;;;;;;15.00;40.99;94473.84;5138026;27;20027;-79
2023/04/02 10:34:39;;;;;;;1.63;0.88;;;;;;;14.99;41.48;94479.50;5136210;27;20513;-79
2023/04/02 10:37:20;;;;;;;1.27;0.80;;;;;;;15.37;40.58;94477.66;5120450;27;20034;-79
2023/04/02 10:39:57;;;;;;;1.98;0.82;;;;;;;14.24;41.10;94376.75;5139173;27;20099;-78
2023/04/02 10:42:36;;;;;;;1.13;0.70;;;;;;;14.30;41.23;94416.28;5137801;27;20496;-78
2023/04/02 10:45:16;;;;;;;3.05;0.60;;;;;;;14.94;41.39;94479.66;5136810;27;20130;-78
2023/04/02 10:47:56;;;;;;;2.28;0.90;;;;;;;15.01;40.54;94459.38;5118647;27;20027;-77
2023/04/02 10:50:31;;;;;;;7.40;2.60;;;;;;;14.82;41.44;94460.84;5135688;27;20035;-77
2023/04/02 10:53:00;;;;;;;4.50;1.08;;;;;;;14.77;40.86;94467.13;5118148;27;20028;-77
2023/04/02 10:55:30;;;;;;;2.38;0.95;;;;;;;15.15;41.11;94463.75;5117936;27;20027;-77
2023/04/02 10:58:03;;;;;;;2.40;0.80;;;;;;;15.76;39.86;94465.09;5118647;27;20409;-78
2023/04/02 11:00:37;;;;;;;1.80;0.68;;;;;;;15.91;37.84;94408.38;5137871;27;20033;-77
2023/04/02 11:03:22;;;;;;;2.33;0.90;;;;;;;16.28;37.65;94457.53;5119493;27;20146;-78
2023/04/02 11:05:54;;;;;;;2.25;0.73;;;;;;;16.75;37.68;94457.34;5138515;27;20035;-78
2023/04/02 11:08:42;;;;;;;1.70;0.90;;;;;;;17.09;36.41;94450.88;5140444;27;20113;-79
2023/04/02 11:11:20;;;;;;;1.55;0.70;;;;;;;17.08;36.49;94419.81;5122305;27;20497;-78
2023/04/02 11:13:56;;;;;;;3.58;0.70;;;;;;;17.62;34.55;94455.31;5123627;27;20022;-79
2023/04/02 11:16:22;;;;;;;0.95;0.75;;;;;;;17.08;34.58;94457.34;5126073;27;20106;-80
2023/04/02 11:19:13;;;;;;;2.20;1.00;;;;;;;17.63;34.53;94454.19;5111535;28;20031;-79
2023/04/02 11:21:41;;;;;;;4.47;1.10;;;;;;;17.77;34.32;94460.00;5107663;28;20044;-79
2023/04/02 11:24:32;;;;;;;1.92;0.90;;;;;;;17.41;34.36;94459.94;5078992;28;20059;-79
2023/04/02 11:27:10;;;;;;;2.00;1.20;;;;;;;16.83;35.24;94347.47;5089096;28;20119;-79
2023/04/02 11:29:46;;;;;;;1.88;0.70;;;;;;;17.02;34.84;94461.31;5096876;28;20486;-79
2023/04/02 11:32:22;;;;;;;0.77;0.65;;;;;;;16.57;35.52;94433.34;5096779;28;20508;-79
2023/04/02 11:34:48;;;;;;;2.60;0.68;;;;;;;16.45;36.31;94446.69;5097198;28;20089;-79
2023/04/02 11:37:38;;;;;;;2.38;1.10;;;;;;;16.82;36.11;94442.28;5096520;28;20058;-79
2023/04/02 11:40:09;;;;;;;1.30;0.88;;;;;;;16.49;35.81;94446.81;5077899;28;20064;-79
2023/04/02 11:42:36;;;;;;;;;;;;;;;16.43;36.06;94438.19;5097283;28;20028;-79
2023/04/02 11:45:22;;;;;;;5.07;1.38;;;;;;;16.82;35.31;94442.28;5097487;28;19931;-79
2023/04/02 11:48:00;;;;;;;2.33;1.10;;;;;;;17.32;34.56;94434.03;5101928;28;20044;-79
2023/04/02 11:50:34;;;;;;;1.00;0.73;;;;;;;17.52;33.81;94386.81;5101709;28;20036;-79
2023/04/02 11:53:10;;;;;;;5.30;0.68;;;;;;;18.03;33.54;94406.00;5079846;28;20127;-79
2023/04/02 11:56:03;;;;;;;0.80;0.60;;;;;;;17.62;33.63;94394.41;5078773;28;20090;-79
2023/04/02 11:58:32;;;;;;;2.55;0.90;;;;;;;18.05;33.96;94436.72;5096615;28;20121;-79
2023/04/02 12:01:10;;;;;;;1.92;0.65;;;;;;;17.97;33.73;94426.91;5078112;28;20102;-79
2023/04/02 12:03:57;;;;;;;1.35;0.88;;;;;;;18.10;33.27;94433.03;5096350;28;20074;-79
2023/04/02 12:06:45;;;;;;;3.60;0.80;;;;;;;17.58;33.80;94431.03;5097335;28;20040;-79
2023/04/02 12:09:17;;;;;;;1.60;0.82;;;;;;;17.11;35.25;94403.06;5096679;28;20039;-79
2023/04/02 12:11:43;;;;;;;2.25;1.02;;;;;;;17.20;34.96;94435.91;5095573;28;20024;-79
2023/04/02 12:14:30;;;;;;;1.08;0.80;;;;;;;17.52;35.15;94434.28;5094995;28;20115;-79
2023/04/02 12:16:56;;;;;;;1.25;0.85;;;;;;;17.67;34.05;94431.75;5096774;28;20509;-79